Salem, OR (97303)

7:18 AM PST on February 14, 2016 (GMT -0800)
Country Glen | | Change Station
CLOSE
Current Station
Personal Weather Station
Location: Keizer, OR
Elevation: 134 ft
Nearby Weather Stations

Elev 134 ft 45.02 °N, 123.02 °W | Updated 44 seconds ago

Rain
Rain
50.8 °F
Feels Like 50.8 °F
N
3.3
Wind Variable Wind from SE
Gusts 9.2 mph

Today
High -- | Low -- °F
--% Chance of Precip.
Yesterday
High -- | Low -- °F
Precip. -- in
Pressure 30.22 in
Visibility 10.0 miles
Clouds Mostly Cloudy 1000 ft
Overcast 1900 ft
Dew Point 49 °F
Humidity 94%
Rainfall 0.17 in
Snow Depth Not available.
7:14 AM 5:38 PM
Waxing Crescent, 42% visible
METAR KSLE 141456Z 18015G23KT 10SM -RA BKN010 OVC019 11/09 A3021 RMK AO2 SLP232 P0002 60006 T01060089 55003
Pressure 30.22 in
Visibility 10.0 miles
Clouds Mostly Cloudy 1000 ft
Overcast 1900 ft
Dew Point 49 °F
Humidity 94%
Rainfall 0.17 in
Snow Depth Not available.
7:14 AM 5:38 PM
Waxing Crescent, 42% visible
METAR KSLE 141456Z 18015G23KT 10SM -RA BKN010 OVC019 11/09 A3021 RMK AO2 SLP232 P0002 60006 T01060089 55003

10-Day Weather Forecast

Almanac

Astronomy

Feb. 14, 2016 Rise Set
Actual Time
Civil Twilight
Nautical Twilight
Astronomical Twilight
Moon
Length of Visible Light
Length of Day
Tomorrow will be .
, % of the Moon is Illuminated

Today's Extremes

State Highs State Lows

Community

WunderPhotos

Upload Photos

1,892,788 photos uploaded!

WunderBlog® & News

Nearby

Air Quality

  Air Quality AQ Index Pollutant
Not available.

Snow Depth

Station Depth Elevation

Earthquake Activity

City Distance Mag. Time & Date
Minimum magnitude displayed is 2.5.

Coastal Water Temperatures

Place Temperature

Stations

Nearby Weather Stations

Station Location Temp. Windchill Dew Point Humidity Wind Precip. Elev Updated Type
                   

Watches & Warnings

There are currently no watches in effect.